»·PEaware :: N982CA NONE-KSNA

N982CA :: NONE-KSNA

FLIGHT INFORMATION

Flight Status: Arrived
Operator: Privately registered:
United States
More flights under this callsign
Pilot: David C. (25479)
Aircraft: SOCATA TBM-900
(TBM9)
More flights by this aircraft type
Origin: NONE
Destination: KSNA John Wayne-Orange Co
United States
More flights between these airports :: More routes between these airports
Route:
File this flight plan on PilotEdge
Remarks:
Altitude:
(Current/Filed)
5,500ft
Speed:
(Current/Filed)
0kts
Departed: 01-Dec-20 07:07 PM
Arrived: 01-Dec-20 07:58 PM
Distance/Time
Traveled:
Not Available
Distance/Time
To Go:
Arrived

Flight Plot

Page will automatically refresh every two minutes.

Flight plan parsing failed; only flown route is shown


Map Options




Map Legend


Flown Route
Filed Route
Departure Airport
Arrival Airport
Navaid (VOR, NDB)
Fix

Horizontal Profiles

Position Reports

Time Latitude Longitude Heading Altitude Ground
Speed
01-Dec-20 19:05 34.348422 -119.058960 235 254ft 0kts
01-Dec-20 19:06 34.338758 -119.078165 240 751ft 95kts
01-Dec-20 19:07 34.324474 -119.107096 238 1556ft 102kts
01-Dec-20 19:08 34.328364 -119.131846 351 2363ft 98kts
01-Dec-20 19:09 34.361164 -119.130804 5 3166ft 163kts
01-Dec-20 19:10 34.403732 -119.104731 65 3985ft 194kts
01-Dec-20 19:11 34.408376 -119.074753 83 4356ft 198kts
01-Dec-20 19:12 34.408376 -119.074753 83 4356ft 198kts
01-Dec-20 19:13 34.408376 -119.074753 83 4356ft 198kts
01-Dec-20 19:14 34.413236 -119.017411 86 5011ft 200kts
01-Dec-20 19:15 34.414298 -118.948810 88 5466ft 210kts
01-Dec-20 19:16 34.374496 -118.941426 257 5491ft 219kts
01-Dec-20 19:17 34.368726 -119.014095 256 5500ft 220kts
01-Dec-20 19:18 34.352387 -119.084733 254 5506ft 175kts
01-Dec-20 19:19 34.330369 -119.121055 204 5495ft 129kts
01-Dec-20 19:20 34.295475 -119.131285 189 5500ft 129kts
01-Dec-20 19:21 34.261257 -119.123071 149 5494ft 140kts
01-Dec-20 19:22 34.227397 -119.068832 108 5507ft 235kts
01-Dec-20 19:23 34.217057 -118.989598 95 5509ft 240kts
01-Dec-20 19:24 34.198005 -118.918288 110 5503ft 219kts
01-Dec-20 19:25 34.189551 -118.859683 80 5499ft 127kts
01-Dec-20 19:26 34.194089 -118.818765 84 5497ft 122kts
01-Dec-20 19:27 34.194854 -118.778030 86 5485ft 121kts
01-Dec-20 19:28 34.195672 -118.721987 87 5505ft 206kts
01-Dec-20 19:29 34.196815 -118.651980 86 5511ft 169kts
01-Dec-20 19:30 34.197007 -118.608014 95 5498ft 123kts
01-Dec-20 19:31 34.173437 -118.576633 144 5511ft 130kts
01-Dec-20 19:32 34.142071 -118.554408 148 5509ft 130kts
01-Dec-20 19:33 34.110151 -118.533354 150 5490ft 130kts
01-Dec-20 19:34 34.076966 -118.515245 153 5484ft 130kts
01-Dec-20 19:35 34.044017 -118.497445 154 5493ft 130kts
01-Dec-20 19:36 34.010820 -118.480017 151 5499ft 130kts
01-Dec-20 19:37 33.978817 -118.459377 150 5501ft 130kts
01-Dec-20 19:38 33.946524 -118.439156 150 5502ft 130kts
01-Dec-20 19:39 33.914182 -118.419093 150 5502ft 130kts
01-Dec-20 19:40 33.884388 -118.394446 138 5502ft 130kts
01-Dec-20 19:41 33.856344 -118.367028 138 5500ft 129kts
01-Dec-20 19:42 33.828179 -118.339792 140 5504ft 129kts
01-Dec-20 19:43 33.799680 -118.313345 140 5509ft 130kts
01-Dec-20 19:44 33.773189 -118.284088 125 5506ft 129kts
01-Dec-20 19:45 33.752607 -118.248670 121 5447ft 132kts
01-Dec-20 19:46 33.731130 -118.209689 121 4557ft 140kts
01-Dec-20 19:47 33.712968 -118.168667 109 3684ft 136kts
01-Dec-20 19:48 33.701638 -118.127927 106 3506ft 124kts
01-Dec-20 19:49 33.693729 -118.097978 107 3500ft 123kts
01-Dec-20 19:51 33.679318 -118.008537 93 3500ft 122kts
01-Dec-20 19:52 33.675988 -117.967818 94 3490ft 123kts
01-Dec-20 19:53 33.672236 -117.923922 83 2326ft 144kts
01-Dec-20 19:54 33.689460 -117.887367 26 1033ft 123kts
01-Dec-20 19:55 33.710200 -117.860636 97 939ft 115kts
01-Dec-20 19:56 33.685703 -117.862362 208 189ft 111kts
01-Dec-20 19:57 33.675924 -117.869729 294 56ft 0kts
01-Dec-20 19:58 33.675975 -117.870936 113 53ft 6kts
01-Dec-20 19:59 33.675962 -117.870901 113 53ft 0kts
01-Dec-20 20:00 33.675962 -117.870901 113 53ft 0kts
01-Dec-20 20:01 33.675962 -117.870901 113 53ft 0kts
01-Dec-20 20:02 33.675962 -117.870901 113 53ft 0kts
01-Dec-20 20:03 33.675962 -117.870901 113 53ft 0kts
01-Dec-20 20:04 33.675962 -117.870901 113 53ft 0kts
01-Dec-20 20:05 33.675962 -117.870901 113 53ft 0kts
01-Dec-20 20:06 33.675962 -117.870901 113 53ft 0kts
01-Dec-20 20:07 33.675962 -117.870901 113 53ft 0kts
01-Dec-20 20:08 33.675962 -117.870901 113 53ft 0kts
01-Dec-20 20:09 33.675962 -117.870901 113 53ft 0kts

Navigation Log

Ident Type
Flight plan parsing failed, navigation log unavailable